sensor_id;sensor_type;location;lat;lon;timestamp;temperature;humidity
28175;SHT30;59417;44.788;10.334;2023-07-29T00:00:51;25.51;63.44
28175;SHT30;59417;44.788;10.334;2023-07-29T00:03:21;25.51;63.56
28175;SHT30;59417;44.788;10.334;2023-07-29T00:05:52;25.61;63.37
28175;SHT30;59417;44.788;10.334;2023-07-29T00:08:20;25.55;63.51
28175;SHT30;59417;44.788;10.334;2023-07-29T00:10:52;25.58;63.28
28175;SHT30;59417;44.788;10.334;2023-07-29T00:13:20;25.62;63.13
28175;SHT30;59417;44.788;10.334;2023-07-29T00:15:49;25.53;63.48
28175;SHT30;59417;44.788;10.334;2023-07-29T00:18:19;25.51;63.52
28175;SHT30;59417;44.788;10.334;2023-07-29T00:20:48;25.55;63.42
28175;SHT30;59417;44.788;10.334;2023-07-29T00:23:19;25.61;63.17
28175;SHT30;59417;44.788;10.334;2023-07-29T00:25:49;25.67;63.22
28175;SHT30;59417;44.788;10.334;2023-07-29T00:28:17;25.55;63.50
28175;SHT30;59417;44.788;10.334;2023-07-29T00:30:48;25.55;63.36
28175;SHT30;59417;44.788;10.334;2023-07-29T00:33:22;25.64;63.24
28175;SHT30;59417;44.788;10.334;2023-07-29T00:36:00;25.62;63.35
28175;SHT30;59417;44.788;10.334;2023-07-29T00:38:30;25.62;63.32
28175;SHT30;59417;44.788;10.334;2023-07-29T00:41:02;25.61;63.31
28175;SHT30;59417;44.788;10.334;2023-07-29T00:43:29;25.58;63.50
28175;SHT30;59417;44.788;10.334;2023-07-29T00:45:54;25.55;63.45
28175;SHT30;59417;44.788;10.334;2023-07-29T00:48:22;25.53;63.85
28175;SHT30;59417;44.788;10.334;2023-07-29T00:50:48;25.51;63.66
28175;SHT30;59417;44.788;10.334;2023-07-29T00:53:13;25.53;63.90
28175;SHT30;59417;44.788;10.334;2023-07-29T00:55:39;25.41;64.18
28175;SHT30;59417;44.788;10.334;2023-07-29T00:58:05;25.37;64.68
28175;SHT30;59417;44.788;10.334;2023-07-29T01:00:34;25.27;64.64
28175;SHT30;59417;44.788;10.334;2023-07-29T01:03:23;25.31;64.61
28175;SHT30;59417;44.788;10.334;2023-07-29T01:08:38;25.24;64.83
28175;SHT30;59417;44.788;10.334;2023-07-29T01:11:27;25.16;65.21
28175;SHT30;59417;44.788;10.334;2023-07-29T01:16:43;25.27;64.68
28175;SHT30;59417;44.788;10.334;2023-07-29T01:19:26;25.16;65.12
28175;SHT30;59417;44.788;10.334;2023-07-29T01:21:56;25.17;65.10
28175;SHT30;59417;44.788;10.334;2023-07-29T01:24:25;25.17;65.24
28175;SHT30;59417;44.788;10.334;2023-07-29T01:26:54;25.16;65.18
28175;SHT30;59417;44.788;10.334;2023-07-29T01:29:21;25.17;65.32
28175;SHT30;59417;44.788;10.334;2023-07-29T01:31:50;25.20;64.99
28175;SHT30;59417;44.788;10.334;2023-07-29T01:34:24;25.20;65.19
28175;SHT30;59417;44.788;10.334;2023-07-29T01:36:52;25.08;65.69
28175;SHT30;59417;44.788;10.334;2023-07-29T01:39:19;25.07;65.55
28175;SHT30;59417;44.788;10.334;2023-07-29T01:41:48;25.02;65.74
28175;SHT30;59417;44.788;10.334;2023-07-29T01:44:14;24.83;66.62
28175;SHT30;59417;44.788;10.334;2023-07-29T01:46:40;24.84;66.41
28175;SHT30;59417;44.788;10.334;2023-07-29T01:49:09;24.76;66.62
28175;SHT30;59417;44.788;10.334;2023-07-29T01:51:36;24.77;66.71
28175;SHT30;59417;44.788;10.334;2023-07-29T01:54:02;24.77;66.75
28175;SHT30;59417;44.788;10.334;2023-07-29T01:56:30;24.75;66.77
28175;SHT30;59417;44.788;10.334;2023-07-29T01:58:56;24.73;66.98
28175;SHT30;59417;44.788;10.334;2023-07-29T02:01:22;24.73;67.01
28175;SHT30;59417;44.788;10.334;2023-07-29T02:03:48;24.77;66.73
28175;SHT30;59417;44.788;10.334;2023-07-29T02:06:20;24.70;66.78
28175;SHT30;59417;44.788;10.334;2023-07-29T02:08:49;24.73;66.75
28175;SHT30;59417;44.788;10.334;2023-07-29T02:11:15;24.99;65.93
28175;SHT30;59417;44.788;10.334;2023-07-29T02:13:40;24.70;66.99
28175;SHT30;59417;44.788;10.334;2023-07-29T02:16:06;24.67;67.32
28175;SHT30;59417;44.788;10.334;2023-07-29T02:18:31;24.60;67.34
28175;SHT30;59417;44.788;10.334;2023-07-29T02:20:57;24.48;67.64
28175;SHT30;59417;44.788;10.334;2023-07-29T02:23:23;24.53;67.49
28175;SHT30;59417;44.788;10.334;2023-07-29T02:25:49;24.42;67.65
28175;SHT30;59417;44.788;10.334;2023-07-29T02:28:15;24.48;67.54
28175;SHT30;59417;44.788;10.334;2023-07-29T02:30:41;24.43;68.12
28175;SHT30;59417;44.788;10.334;2023-07-29T02:33:10;24.42;68.37
28175;SHT30;59417;44.788;10.334;2023-07-29T02:35:35;24.41;68.15
28175;SHT30;59417;44.788;10.334;2023-07-29T02:38:01;24.43;68.12
28175;SHT30;59417;44.788;10.334;2023-07-29T02:40:27;24.38;67.98
28175;SHT30;59417;44.788;10.334;2023-07-29T02:42:55;24.28;68.37
28175;SHT30;59417;44.788;10.334;2023-07-29T02:45:23;24.19;68.47
28175;SHT30;59417;44.788;10.334;2023-07-29T02:47:48;24.18;68.30
28175;SHT30;59417;44.788;10.334;2023-07-29T02:50:22;24.19;68.02
28175;SHT30;59417;44.788;10.334;2023-07-29T02:52:48;24.14;68.25
28175;SHT30;59417;44.788;10.334;2023-07-29T02:55:14;24.25;68.15
28175;SHT30;59417;44.788;10.334;2023-07-29T02:57:42;24.21;68.68
28175;SHT30;59417;44.788;10.334;2023-07-29T03:00:09;24.21;68.41
28175;SHT30;59417;44.788;10.334;2023-07-29T03:02:35;24.09;68.44
28175;SHT30;59417;44.788;10.334;2023-07-29T03:05:01;24.16;68.08
28175;SHT30;59417;44.788;10.334;2023-07-29T03:07:27;24.29;68.25
28175;SHT30;59417;44.788;10.334;2023-07-29T03:09:53;24.28;69.27
28175;SHT30;59417;44.788;10.334;2023-07-29T03:12:18;24.25;69.54
28175;SHT30;59417;44.788;10.334;2023-07-29T03:14:49;24.11;68.96
28175;SHT30;59417;44.788;10.334;2023-07-29T03:17:15;24.08;68.86
28175;SHT30;59417;44.788;10.334;2023-07-29T03:19:41;23.98;69.09
28175;SHT30;59417;44.788;10.334;2023-07-29T03:22:09;23.94;69.40
28175;SHT30;59417;44.788;10.334;2023-07-29T03:24:35;23.95;69.11
28175;SHT30;59417;44.788;10.334;2023-07-29T03:27:01;23.97;69.13
28175;SHT30;59417;44.788;10.334;2023-07-29T03:29:27;24.05;69.04
28175;SHT30;59417;44.788;10.334;2023-07-29T03:31:53;23.91;69.44
28175;SHT30;59417;44.788;10.334;2023-07-29T03:34:18;23.91;69.56
28175;SHT30;59417;44.788;10.334;2023-07-29T03:36:46;23.84;69.82
28175;SHT30;59417;44.788;10.334;2023-07-29T03:39:14;23.87;69.54
28175;SHT30;59417;44.788;10.334;2023-07-29T03:41:39;23.95;69.41
28175;SHT30;59417;44.788;10.334;2023-07-29T03:44:06;23.90;69.66
28175;SHT30;59417;44.788;10.334;2023-07-29T03:46:32;23.82;69.92
28175;SHT30;59417;44.788;10.334;2023-07-29T03:48:58;23.94;69.53
28175;SHT30;59417;44.788;10.334;2023-07-29T03:51:24;23.85;69.72
28175;SHT30;59417;44.788;10.334;2023-07-29T03:53:50;23.74;70.22
28175;SHT30;59417;44.788;10.334;2023-07-29T03:56:16;23.74;70.20
28175;SHT30;59417;44.788;10.334;2023-07-29T03:58:42;23.77;69.84
28175;SHT30;59417;44.788;10.334;2023-07-29T04:01:09;23.81;69.78
28175;SHT30;59417;44.788;10.334;2023-07-29T04:03:35;23.77;69.95
28175;SHT30;59417;44.788;10.334;2023-07-29T04:06:01;23.87;69.74
28175;SHT30;59417;44.788;10.334;2023-07-29T04:08:27;24.05;69.83
28175;SHT30;59417;44.788;10.334;2023-07-29T04:10:52;24.06;69.67
28175;SHT30;59417;44.788;10.334;2023-07-29T04:13:18;23.88;69.89
28175;SHT30;59417;44.788;10.334;2023-07-29T04:15:45;23.75;70.47
28175;SHT30;59417;44.788;10.334;2023-07-29T04:18:10;23.75;70.44
28175;SHT30;59417;44.788;10.334;2023-07-29T04:20:37;23.68;70.63
28175;SHT30;59417;44.788;10.334;2023-07-29T04:23:02;23.77;70.35
28175;SHT30;59417;44.788;10.334;2023-07-29T04:25:28;23.81;70.47
28175;SHT30;59417;44.788;10.334;2023-07-29T04:27:54;23.87;70.40
28175;SHT30;59417;44.788;10.334;2023-07-29T04:30:20;23.92;70.16
28175;SHT30;59417;44.788;10.334;2023-07-29T04:32:45;23.85;70.40
28175;SHT30;59417;44.788;10.334;2023-07-29T04:35:13;23.71;70.71
28175;SHT30;59417;44.788;10.334;2023-07-29T04:37:40;23.77;70.57
28175;SHT30;59417;44.788;10.334;2023-07-29T04:40:06;23.88;70.16
28175;SHT30;59417;44.788;10.334;2023-07-29T04:42:32;23.88;70.47
28175;SHT30;59417;44.788;10.334;2023-07-29T04:44:58;23.97;70.58
28175;SHT30;59417;44.788;10.334;2023-07-29T04:47:24;23.91;71.20
28175;SHT30;59417;44.788;10.334;2023-07-29T04:49:49;23.82;70.95
28175;SHT30;59417;44.788;10.334;2023-07-29T04:52:15;23.81;71.04
28175;SHT30;59417;44.788;10.334;2023-07-29T04:54:41;23.82;71.31
28175;SHT30;59417;44.788;10.334;2023-07-29T04:57:07;23.78;71.49
28175;SHT30;59417;44.788;10.334;2023-07-29T04:59:34;23.94;70.64
28175;SHT30;59417;44.788;10.334;2023-07-29T05:02:00;24.06;70.40
28175;SHT30;59417;44.788;10.334;2023-07-29T05:04:26;24.14;69.94
28175;SHT30;59417;44.788;10.334;2023-07-29T05:06:52;24.08;70.20
28175;SHT30;59417;44.788;10.334;2023-07-29T05:09:18;23.98;70.51
28175;SHT30;59417;44.788;10.334;2023-07-29T05:11:45;24.05;70.41
28175;SHT30;59417;44.788;10.334;2023-07-29T05:14:12;23.98;70.77
28175;SHT30;59417;44.788;10.334;2023-07-29T05:16:38;24.18;70.05
28175;SHT30;59417;44.788;10.334;2023-07-29T05:19:04;24.05;70.39
28175;SHT30;59417;44.788;10.334;2023-07-29T05:21:30;24.01;70.63
28175;SHT30;59417;44.788;10.334;2023-07-29T05:23:55;24.19;70.32
28175;SHT30;59417;44.788;10.334;2023-07-29T05:26:22;24.25;70.05
28175;SHT30;59417;44.788;10.334;2023-07-29T05:28:48;24.22;70.44
28175;SHT30;59417;44.788;10.334;2023-07-29T05:31:13;24.24;70.46
28175;SHT30;59417;44.788;10.334;2023-07-29T05:33:39;24.19;70.62
28175;SHT30;59417;44.788;10.334;2023-07-29T05:36:05;24.25;70.93
28175;SHT30;59417;44.788;10.334;2023-07-29T05:38:31;24.36;69.63
28175;SHT30;59417;44.788;10.334;2023-07-29T05:40:57;24.41;69.83
28175;SHT30;59417;44.788;10.334;2023-07-29T05:43:24;24.43;70.16
28175;SHT30;59417;44.788;10.334;2023-07-29T05:45:53;24.53;69.02
28175;SHT30;59417;44.788;10.334;2023-07-29T05:48:30;24.59;69.45
28175;SHT30;59417;44.788;10.334;2023-07-29T05:50:56;24.62;68.77
28175;SHT30;59417;44.788;10.334;2023-07-29T05:53:25;24.62;68.42
28175;SHT30;59417;44.788;10.334;2023-07-29T05:55:50;24.55;68.80
28175;SHT30;59417;44.788;10.334;2023-07-29T05:58:16;24.62;69.37
28175;SHT30;59417;44.788;10.334;2023-07-29T06:00:42;24.63;69.39
28175;SHT30;59417;44.788;10.334;2023-07-29T06:03:08;24.70;68.56
28175;SHT30;59417;44.788;10.334;2023-07-29T06:05:33;24.76;68.48
28175;SHT30;59417;44.788;10.334;2023-07-29T06:08:02;24.82;68.25
28175;SHT30;59417;44.788;10.334;2023-07-29T06:10:28;24.82;68.27
28175;SHT30;59417;44.788;10.334;2023-07-29T06:12:54;24.86;68.50
28175;SHT30;59417;44.788;10.334;2023-07-29T06:15:20;24.90;68.43
28175;SHT30;59417;44.788;10.334;2023-07-29T06:17:48;24.91;68.77
28175;SHT30;59417;44.788;10.334;2023-07-29T06:20:14;24.97;68.78
28175;SHT30;59417;44.788;10.334;2023-07-29T06:22:42;25.04;68.82
28175;SHT30;59417;44.788;10.334;2023-07-29T06:25:08;25.06;68.20
28175;SHT30;59417;44.788;10.334;2023-07-29T06:27:34;25.13;67.82
28175;SHT30;59417;44.788;10.334;2023-07-29T06:30:00;25.13;68.19
28175;SHT30;59417;44.788;10.334;2023-07-29T06:32:26;25.14;68.08
28175;SHT30;59417;44.788;10.334;2023-07-29T06:34:52;25.21;68.20
28175;SHT30;59417;44.788;10.334;2023-07-29T06:37:20;25.34;67.42
28175;SHT30;59417;44.788;10.334;2023-07-29T06:39:45;25.30;67.48
28175;SHT30;59417;44.788;10.334;2023-07-29T06:42:11;25.18;68.10
28175;SHT30;59417;44.788;10.334;2023-07-29T06:44:37;25.21;68.29
28175;SHT30;59417;44.788;10.334;2023-07-29T06:47:03;25.24;68.30
28175;SHT30;59417;44.788;10.334;2023-07-29T06:49:32;25.35;68.13
28175;SHT30;59417;44.788;10.334;2023-07-29T06:52:01;25.61;67.33
28175;SHT30;59417;44.788;10.334;2023-07-29T06:54:26;25.61;67.43
28175;SHT30;59417;44.788;10.334;2023-07-29T06:56:52;25.54;67.97
28175;SHT30;59417;44.788;10.334;2023-07-29T06:59:18;25.51;68.14
28175;SHT30;59417;44.788;10.334;2023-07-29T07:01:44;25.59;67.34
28175;SHT30;59417;44.788;10.334;2023-07-29T07:04:09;25.62;67.36
28175;SHT30;59417;44.788;10.334;2023-07-29T07:06:35;25.69;67.09
28175;SHT30;59417;44.788;10.334;2023-07-29T07:09:01;25.72;66.91
28175;SHT30;59417;44.788;10.334;2023-07-29T07:11:32;25.82;66.61
28175;SHT30;59417;44.788;10.334;2023-07-29T07:13:58;25.99;66.63
28175;SHT30;59417;44.788;10.334;2023-07-29T07:16:23;26.15;65.96
28175;SHT30;59417;44.788;10.334;2023-07-29T07:18:52;26.09;66.35
28175;SHT30;59417;44.788;10.334;2023-07-29T07:21:18;26.10;66.35
28175;SHT30;59417;44.788;10.334;2023-07-29T07:23:43;26.13;66.94
28175;SHT30;59417;44.788;10.334;2023-07-29T07:26:09;26.06;66.93
28175;SHT30;59417;44.788;10.334;2023-07-29T07:28:35;26.22;65.32
28175;SHT30;59417;44.788;10.334;2023-07-29T07:31:00;26.25;65.76
28175;SHT30;59417;44.788;10.334;2023-07-29T07:33:26;26.09;65.34
28175;SHT30;59417;44.788;10.334;2023-07-29T07:35:52;26.20;65.32
28175;SHT30;59417;44.788;10.334;2023-07-29T07:38:17;26.18;65.45
28175;SHT30;59417;44.788;10.334;2023-07-29T07:43:44;26.40;64.88
28175;SHT30;59417;44.788;10.334;2023-07-29T07:46:10;26.44;63.87
28175;SHT30;59417;44.788;10.334;2023-07-29T07:48:37;26.57;64.39
28175;SHT30;59417;44.788;10.334;2023-07-29T07:51:11;26.56;64.13
28175;SHT30;59417;44.788;10.334;2023-07-29T07:53:37;26.65;64.50
28175;SHT30;59417;44.788;10.334;2023-07-29T07:56:03;26.68;64.47
28175;SHT30;59417;44.788;10.334;2023-07-29T07:58:28;26.76;64.87
28175;SHT30;59417;44.788;10.334;2023-07-29T08:01:01;26.92;64.26
28175;SHT30;59417;44.788;10.334;2023-07-29T08:03:27;26.91;63.61
28175;SHT30;59417;44.788;10.334;2023-07-29T08:05:53;26.92;63.68
28175;SHT30;59417;44.788;10.334;2023-07-29T08:08:19;26.94;63.82
28175;SHT30;59417;44.788;10.334;2023-07-29T08:10:45;26.98;64.28
28175;SHT30;59417;44.788;10.334;2023-07-29T08:13:11;27.10;63.64
28175;SHT30;59417;44.788;10.334;2023-07-29T08:15:39;27.14;63.75
28175;SHT30;59417;44.788;10.334;2023-07-29T08:18:07;27.21;64.10
28175;SHT30;59417;44.788;10.334;2023-07-29T08:20:33;27.22;64.27
28175;SHT30;59417;44.788;10.334;2023-07-29T08:22:59;27.28;63.80
28175;SHT30;59417;44.788;10.334;2023-07-29T08:25:25;27.19;63.04
28175;SHT30;59417;44.788;10.334;2023-07-29T08:27:50;27.14;63.49
28175;SHT30;59417;44.788;10.334;2023-07-29T08:30:16;27.10;63.58
28175;SHT30;59417;44.788;10.334;2023-07-29T08:32:43;27.11;63.89
28175;SHT30;59417;44.788;10.334;2023-07-29T08:35:11;27.24;62.83
28175;SHT30;59417;44.788;10.334;2023-07-29T08:37:36;27.25;63.07
28175;SHT30;59417;44.788;10.334;2023-07-29T08:40:02;27.31;62.10
28175;SHT30;59417;44.788;10.334;2023-07-29T08:42:31;27.16;62.96
28175;SHT30;59417;44.788;10.334;2023-07-29T08:45:05;27.07;62.58
28175;SHT30;59417;44.788;10.334;2023-07-29T08:47:31;27.00;62.64
28175;SHT30;59417;44.788;10.334;2023-07-29T08:49:57;26.98;63.12
28175;SHT30;59417;44.788;10.334;2023-07-29T08:52:25;27.02;63.57
28175;SHT30;59417;44.788;10.334;2023-07-29T08:54:51;27.08;64.23
28175;SHT30;59417;44.788;10.334;2023-07-29T08:57:22;27.21;64.10
28175;SHT30;59417;44.788;10.334;2023-07-29T08:59:49;27.26;63.53
28175;SHT30;59417;44.788;10.334;2023-07-29T09:02:14;27.25;63.71
28175;SHT30;59417;44.788;10.334;2023-07-29T09:04:40;27.29;63.07
28175;SHT30;59417;44.788;10.334;2023-07-29T09:07:05;27.39;62.67
28175;SHT30;59417;44.788;10.334;2023-07-29T09:09:32;27.51;63.29
28175;SHT30;59417;44.788;10.334;2023-07-29T09:11:57;27.49;63.11
28175;SHT30;59417;44.788;10.334;2023-07-29T09:14:23;27.52;62.52
28175;SHT30;59417;44.788;10.334;2023-07-29T09:16:49;27.58;61.94
28175;SHT30;59417;44.788;10.334;2023-07-29T09:19:15;27.59;61.95
28175;SHT30;59417;44.788;10.334;2023-07-29T09:21:41;27.79;62.48
28175;SHT30;59417;44.788;10.334;2023-07-29T09:24:07;28.02;60.13
28175;SHT30;59417;44.788;10.334;2023-07-29T09:26:33;28.05;60.15
28175;SHT30;59417;44.788;10.334;2023-07-29T09:28:59;28.07;61.33
28175;SHT30;59417;44.788;10.334;2023-07-29T09:31:27;28.21;60.67
28175;SHT30;59417;44.788;10.334;2023-07-29T09:33:59;28.41;58.56
28175;SHT30;59417;44.788;10.334;2023-07-29T09:36:26;28.34;58.70
28175;SHT30;59417;44.788;10.334;2023-07-29T09:38:57;28.14;58.43
28175;SHT30;59417;44.788;10.334;2023-07-29T09:41:29;28.20;59.22
28175;SHT30;59417;44.788;10.334;2023-07-29T09:44:00;28.41;59.51
28175;SHT30;59417;44.788;10.334;2023-07-29T09:46:32;28.63;59.11
28175;SHT30;59417;44.788;10.334;2023-07-29T09:48:58;28.91;57.20
28175;SHT30;59417;44.788;10.334;2023-07-29T09:51:27;28.96;58.32
28175;SHT30;59417;44.788;10.334;2023-07-29T09:53:53;29.10;56.13
28175;SHT30;59417;44.788;10.334;2023-07-29T09:59:35;29.12;56.70
28175;SHT30;59417;44.788;10.334;2023-07-29T10:02:01;29.20;56.94
28175;SHT30;59417;44.788;10.334;2023-07-29T10:04:26;29.26;56.32
28175;SHT30;59417;44.788;10.334;2023-07-29T10:06:53;29.32;57.25
28175;SHT30;59417;44.788;10.334;2023-07-29T10:09:20;29.42;56.02
28175;SHT30;59417;44.788;10.334;2023-07-29T10:11:46;29.47;55.40
28175;SHT30;59417;44.788;10.334;2023-07-29T10:14:11;29.47;55.83
28175;SHT30;59417;44.788;10.334;2023-07-29T10:16:39;29.43;56.04
28175;SHT30;59417;44.788;10.334;2023-07-29T10:19:07;29.54;56.42
28175;SHT30;59417;44.788;10.334;2023-07-29T10:21:33;29.61;56.98
28175;SHT30;59417;44.788;10.334;2023-07-29T10:24:01;29.76;57.51
28175;SHT30;59417;44.788;10.334;2023-07-29T10:26:29;29.61;57.05
28175;SHT30;59417;44.788;10.334;2023-07-29T10:28:59;29.39;57.38
28175;SHT30;59417;44.788;10.334;2023-07-29T10:31:36;29.12;58.60
28175;SHT30;59417;44.788;10.334;2023-07-29T10:34:04;29.19;58.82
28175;SHT30;59417;44.788;10.334;2023-07-29T10:36:30;29.26;58.00
28175;SHT30;59417;44.788;10.334;2023-07-29T10:38:55;29.15;59.30
28175;SHT30;59417;44.788;10.334;2023-07-29T10:41:21;29.05;59.19
28175;SHT30;59417;44.788;10.334;2023-07-29T10:43:47;29.08;59.18
28175;SHT30;59417;44.788;10.334;2023-07-29T10:46:15;29.05;58.19
28175;SHT30;59417;44.788;10.334;2023-07-29T10:48:44;29.00;59.20
28175;SHT30;59417;44.788;10.334;2023-07-29T10:53:59;29.39;57.68
28175;SHT30;59417;44.788;10.334;2023-07-29T10:56:31;29.57;56.12
28175;SHT30;59417;44.788;10.334;2023-07-29T10:58:58;29.59;56.42
28175;SHT30;59417;44.788;10.334;2023-07-29T11:01:29;29.46;56.76
28175;SHT30;59417;44.788;10.334;2023-07-29T11:09:42;29.45;57.62
28175;SHT30;59417;44.788;10.334;2023-07-29T11:15:00;29.36;57.02
28175;SHT30;59417;44.788;10.334;2023-07-29T11:17:28;29.35;57.05
28175;SHT30;59417;44.788;10.334;2023-07-29T11:19:56;29.73;58.36
28175;SHT30;59417;44.788;10.334;2023-07-29T11:22:23;30.17;56.71
28175;SHT30;59417;44.788;10.334;2023-07-29T11:24:49;30.55;56.79
28175;SHT30;59417;44.788;10.334;2023-07-29T11:27:15;30.86;55.64
28175;SHT30;59417;44.788;10.334;2023-07-29T11:29:40;30.97;55.32
28175;SHT30;59417;44.788;10.334;2023-07-29T11:32:06;30.82;54.77
28175;SHT30;59417;44.788;10.334;2023-07-29T11:34:32;30.58;55.09
28175;SHT30;59417;44.788;10.334;2023-07-29T11:36:57;30.31;54.15
28175;SHT30;59417;44.788;10.334;2023-07-29T11:39:23;30.10;56.15
28175;SHT30;59417;44.788;10.334;2023-07-29T11:41:48;29.91;56.48
28175;SHT30;59417;44.788;10.334;2023-07-29T11:44:17;29.91;54.45
28175;SHT30;59417;44.788;10.334;2023-07-29T11:46:43;29.70;55.82
28175;SHT30;59417;44.788;10.334;2023-07-29T11:49:09;29.70;55.90
28175;SHT30;59417;44.788;10.334;2023-07-29T11:51:36;29.89;57.03
28175;SHT30;59417;44.788;10.334;2023-07-29T11:54:02;30.36;57.30
28175;SHT30;59417;44.788;10.334;2023-07-29T11:56:29;30.69;54.54
28175;SHT30;59417;44.788;10.334;2023-07-29T11:58:55;31.00;54.58
28175;SHT30;59417;44.788;10.334;2023-07-29T12:01:22;31.26;53.79
28175;SHT30;59417;44.788;10.334;2023-07-29T12:03:48;31.48;52.88
28175;SHT30;59417;44.788;10.334;2023-07-29T12:06:14;31.57;53.39
28175;SHT30;59417;44.788;10.334;2023-07-29T12:08:41;31.33;52.08
28175;SHT30;59417;44.788;10.334;2023-07-29T12:11:08;31.02;52.70
28175;SHT30;59417;44.788;10.334;2023-07-29T12:13:36;31.17;53.65
28175;SHT30;59417;44.788;10.334;2023-07-29T12:16:06;31.40;52.59
28175;SHT30;59417;44.788;10.334;2023-07-29T12:18:33;31.58;51.19
28175;SHT30;59417;44.788;10.334;2023-07-29T12:21:02;31.74;51.31
28175;SHT30;59417;44.788;10.334;2023-07-29T12:23:29;31.89;50.59
28175;SHT30;59417;44.788;10.334;2023-07-29T12:26:03;32.09;51.07
28175;SHT30;59417;44.788;10.334;2023-07-29T12:28:30;32.31;50.21
28175;SHT30;59417;44.788;10.334;2023-07-29T12:30:57;32.39;50.11
28175;SHT30;59417;44.788;10.334;2023-07-29T12:33:34;32.55;49.66
28175;SHT30;59417;44.788;10.334;2023-07-29T12:36:01;32.55;49.55
28175;SHT30;59417;44.788;10.334;2023-07-29T12:38:27;32.69;48.22
28175;SHT30;59417;44.788;10.334;2023-07-29T12:40:54;32.72;48.81
28175;SHT30;59417;44.788;10.334;2023-07-29T12:43:20;32.62;48.35
28175;SHT30;59417;44.788;10.334;2023-07-29T12:45:46;32.68;49.44
28175;SHT30;59417;44.788;10.334;2023-07-29T12:48:12;32.58;49.07
28175;SHT30;59417;44.788;10.334;2023-07-29T12:50:38;32.79;48.98
28175;SHT30;59417;44.788;10.334;2023-07-29T12:53:09;32.53;47.82
28175;SHT30;59417;44.788;10.334;2023-07-29T12:55:39;32.53;48.92
28175;SHT30;59417;44.788;10.334;2023-07-29T12:58:04;32.62;47.60
28175;SHT30;59417;44.788;10.334;2023-07-29T13:00:30;32.72;47.25
28175;SHT30;59417;44.788;10.334;2023-07-29T13:02:56;32.42;48.10
28175;SHT30;59417;44.788;10.334;2023-07-29T13:05:22;31.95;48.84
28175;SHT30;59417;44.788;10.334;2023-07-29T13:07:47;31.60;49.85
28175;SHT30;59417;44.788;10.334;2023-07-29T13:10:14;31.37;50.22
28175;SHT30;59417;44.788;10.334;2023-07-29T13:12:40;31.07;51.21
28175;SHT30;59417;44.788;10.334;2023-07-29T13:15:06;30.90;51.87
28175;SHT30;59417;44.788;10.334;2023-07-29T13:17:33;31.17;52.41
28175;SHT30;59417;44.788;10.334;2023-07-29T13:19:58;31.60;51.90
28175;SHT30;59417;44.788;10.334;2023-07-29T13:22:24;31.91;50.81
28175;SHT30;59417;44.788;10.334;2023-07-29T13:24:50;32.24;49.91
28175;SHT30;59417;44.788;10.334;2023-07-29T13:27:16;32.36;49.89
28175;SHT30;59417;44.788;10.334;2023-07-29T13:29:41;32.56;48.84
28175;SHT30;59417;44.788;10.334;2023-07-29T13:32:09;32.65;48.81
28175;SHT30;59417;44.788;10.334;2023-07-29T13:34:35;32.60;49.56
28175;SHT30;59417;44.788;10.334;2023-07-29T13:37:00;32.78;49.23
28175;SHT30;59417;44.788;10.334;2023-07-29T13:39:26;32.65;48.96
28175;SHT30;59417;44.788;10.334;2023-07-29T13:41:52;32.72;49.01
28175;SHT30;59417;44.788;10.334;2023-07-29T13:44:18;32.84;49.37
28175;SHT30;59417;44.788;10.334;2023-07-29T13:46:43;32.87;49.68
28175;SHT30;59417;44.788;10.334;2023-07-29T13:49:09;32.91;48.55
28175;SHT30;59417;44.788;10.334;2023-07-29T13:51:35;32.96;49.55
28175;SHT30;59417;44.788;10.334;2023-07-29T13:54:01;32.89;49.74
28175;SHT30;59417;44.788;10.334;2023-07-29T13:56:27;32.84;46.92
28175;SHT30;59417;44.788;10.334;2023-07-29T13:58:52;32.79;46.93
28175;SHT30;59417;44.788;10.334;2023-07-29T14:01:18;32.72;47.74
28175;SHT30;59417;44.788;10.334;2023-07-29T14:03:43;32.66;47.84
28175;SHT30;59417;44.788;10.334;2023-07-29T14:06:09;32.45;48.26
28175;SHT30;59417;44.788;10.334;2023-07-29T14:08:34;32.58;47.40
28175;SHT30;59417;44.788;10.334;2023-07-29T14:11:00;32.58;48.55
28175;SHT30;59417;44.788;10.334;2023-07-29T14:13:26;32.60;47.68
28175;SHT30;59417;44.788;10.334;2023-07-29T14:15:51;32.58;47.54
28175;SHT30;59417;44.788;10.334;2023-07-29T14:18:17;32.59;49.30
28175;SHT30;59417;44.788;10.334;2023-07-29T14:20:46;32.63;49.07
28175;SHT30;59417;44.788;10.334;2023-07-29T14:23:12;32.52;49.62
28175;SHT30;59417;44.788;10.334;2023-07-29T14:25:37;32.42;49.11
28175;SHT30;59417;44.788;10.334;2023-07-29T14:28:12;32.39;47.95
28175;SHT30;59417;44.788;10.334;2023-07-29T14:30:48;32.40;48.11
28175;SHT30;59417;44.788;10.334;2023-07-29T14:33:30;32.43;48.12
28175;SHT30;59417;44.788;10.334;2023-07-29T14:35:57;32.28;49.31
28175;SHT30;59417;44.788;10.334;2023-07-29T14:38:22;32.15;49.18
28175;SHT30;59417;44.788;10.334;2023-07-29T14:40:48;32.11;49.89
28175;SHT30;59417;44.788;10.334;2023-07-29T14:43:18;31.76;49.40
28175;SHT30;59417;44.788;10.334;2023-07-29T14:45:44;31.61;49.98
28175;SHT30;59417;44.788;10.334;2023-07-29T14:48:13;31.63;50.32
28175;SHT30;59417;44.788;10.334;2023-07-29T14:50:38;31.74;50.76
28175;SHT30;59417;44.788;10.334;2023-07-29T14:53:04;31.71;50.44
28175;SHT30;59417;44.788;10.334;2023-07-29T14:55:30;31.61;50.70
28175;SHT30;59417;44.788;10.334;2023-07-29T14:57:55;31.63;50.88
28175;SHT30;59417;44.788;10.334;2023-07-29T15:00:21;31.60;52.34
28175;SHT30;59417;44.788;10.334;2023-07-29T15:02:46;31.58;52.96
28175;SHT30;59417;44.788;10.334;2023-07-29T15:05:12;31.54;52.36
28175;SHT30;59417;44.788;10.334;2023-07-29T15:07:38;31.44;51.75
28175;SHT30;59417;44.788;10.334;2023-07-29T15:10:03;31.37;51.34
28175;SHT30;59417;44.788;10.334;2023-07-29T15:12:29;31.36;52.16
28175;SHT30;59417;44.788;10.334;2023-07-29T15:14:55;31.60;52.46
28175;SHT30;59417;44.788;10.334;2023-07-29T15:17:20;31.74;51.89
28175;SHT30;59417;44.788;10.334;2023-07-29T15:19:48;31.87;50.77
28175;SHT30;59417;44.788;10.334;2023-07-29T15:22:16;31.98;51.07
28175;SHT30;59417;44.788;10.334;2023-07-29T15:24:42;32.11;49.06
28175;SHT30;59417;44.788;10.334;2023-07-29T15:27:12;32.27;48.64
28175;SHT30;59417;44.788;10.334;2023-07-29T15:29:37;32.32;48.62
28175;SHT30;59417;44.788;10.334;2023-07-29T15:32:03;32.38;48.65
28175;SHT30;59417;44.788;10.334;2023-07-29T15:34:29;32.32;47.73
28175;SHT30;59417;44.788;10.334;2023-07-29T15:36:57;32.36;47.64